Time;durP1;ratioP1;P1;durP2;ratioP2;P2;SDS_P1;SDS_P2;PMS_P1;PMS_P2;Temp;Humidity;BMP_temperature;BMP_pressure;BME280_temperature;BME280_humidity;BME280_pressure;Samples;Min_cycle;Max_cycle;Signal;HPM_P1;HPM_P2
2022/11/19 05:22:32;;;;;;;5.05;2.88;;;;;;;7.30;100.00;99439.31;5110455;27;20327;-70
2022/11/19 05:24:57;;;;;;;9.20;3.78;;;;;;;7.33;100.00;99438.13;5110360;28;20557;-69
2022/11/19 05:27:22;;;;;;;7.68;3.45;;;;;;;7.35;100.00;99439.59;5109287;28;20039;-69
2022/11/19 05:29:48;;;;;;;5.97;3.67;;;;;;;7.42;100.00;99446.84;5111026;28;20036;-69
2022/11/19 05:32:13;;;;;;;6.00;3.72;;;;;;;7.40;100.00;99447.03;5110398;28;20093;-69
2022/11/19 05:34:39;;;;;;;9.10;3.97;;;;;;;7.25;100.00;99428.41;5134774;22;20039;-73
2022/11/19 05:37:04;;;;;;;8.40;4.28;;;;;;;7.39;100.00;99440.09;5087613;28;20120;-71
2022/11/19 05:39:29;;;;;;;5.50;3.83;;;;;;;7.41;100.00;99447.88;5089256;28;20119;-71
2022/11/19 05:41:55;;;;;;;5.45;3.03;;;;;;;7.44;100.00;99448.34;5088728;28;20036;-71
2022/11/19 05:44:20;;;;;;;3.97;2.65;;;;;;;7.42;100.00;99445.03;5089164;28;20040;-74
2022/11/19 05:46:45;;;;;;;6.13;3.20;;;;;;;7.39;100.00;99439.28;5107221;28;20130;-71
2022/11/19 05:49:11;;;;;;;8.52;3.92;;;;;;;7.44;100.00;99450.19;5107998;28;20044;-71
2022/11/19 05:51:36;;;;;;;6.72;3.33;;;;;;;7.45;100.00;99449.19;5108943;28;20514;-71
2022/11/19 05:54:02;;;;;;;7.25;3.47;;;;;;;7.47;100.00;99453.31;5109122;28;20488;-70
2022/11/19 05:56:27;;;;;;;6.35;3.50;;;;;;;7.48;100.00;99456.78;5109096;28;20044;-72
2022/11/19 05:58:53;;;;;;;4.68;2.90;;;;;;;7.51;100.00;99459.91;5109043;28;20040;-71
2022/11/19 06:01:25;;;;;;;3.72;2.67;;;;;;;7.53;100.00;99465.03;5107488;28;20044;-71
2022/11/19 06:03:50;;;;;;;5.93;3.25;;;;;;;7.52;100.00;99460.75;5109301;28;20035;-71
2022/11/19 06:06:16;;;;;;;4.88;3.10;;;;;;;7.53;100.00;99465.03;5108976;28;20028;-71
2022/11/19 06:08:41;;;;;;;5.43;2.47;;;;;;;7.53;100.00;99465.88;5107620;28;20050;-71
2022/11/19 06:11:46;;;;;;;6.57;3.10;;;;;;;7.54;100.00;99467.50;5108516;28;20032;-73
2022/11/19 06:13:52;;;;;;;6.38;3.47;;;;;;;7.55;100.00;99463.03;5108783;28;20040;-71
2022/11/19 06:16:17;;;;;;;6.15;3.42;;;;;;;7.59;100.00;99469.66;5073523;28;20046;-71
2022/11/19 06:18:43;;;;;;;5.40;2.67;;;;;;;7.56;100.00;99468.19;5108793;28;20539;-71
2022/11/19 06:21:08;;;;;;;6.57;3.42;;;;;;;7.55;100.00;99463.03;5107156;28;20039;-71
2022/11/19 06:23:33;;;;;;;5.70;3.45;;;;;;;7.56;100.00;99468.19;5108546;28;20043;-70
2022/11/19 06:25:59;;;;;;;3.90;2.60;;;;;;;7.61;100.00;99472.94;5107315;28;20043;-71
2022/11/19 06:28:24;;;;;;;5.45;3.53;;;;;;;7.60;100.00;99466.00;5108567;28;20036;-71
2022/11/19 06:30:49;;;;;;;7.65;3.10;;;;;;;7.60;100.00;99471.31;5090162;28;20389;-71
2022/11/19 06:33:15;;;;;;;5.90;3.10;;;;;;;7.55;100.00;99473.63;5098524;28;20046;-71
2022/11/19 06:35:40;;;;;;;4.57;3.25;;;;;;;7.51;100.00;99475.00;5094629;28;20047;-71
2022/11/19 06:38:05;;;;;;;5.80;3.47;;;;;;;7.52;100.00;99477.47;5093522;28;20553;-72
2022/11/19 06:40:31;;;;;;;4.28;2.65;;;;;;;7.49;100.00;99482.28;5094442;28;20337;-71
2022/11/19 06:42:56;;;;;;;7.25;3.53;;;;;;;7.52;100.00;99485.41;5094567;28;20035;-71
2022/11/19 06:45:22;;;;;;;5.72;3.53;;;;;;;7.50;100.00;99479.47;5093304;28;20527;-72
2022/11/19 06:47:50;;;;;;;5.80;2.97;;;;;;;7.53;100.00;99488.91;5094683;28;20392;-70
2022/11/19 06:50:16;;;;;;;4.78;3.40;;;;;;;7.54;100.00;99493.19;5093081;28;20047;-71
2022/11/19 06:52:41;;;;;;;4.65;3.03;;;;;;;7.53;100.00;99499.50;5094570;28;20044;-70
2022/11/19 06:55:07;;;;;;;5.78;3.28;;;;;;;7.54;100.00;99495.84;5094278;28;20135;-71
2022/11/19 06:57:32;;;;;;;7.07;3.88;;;;;;;7.53;100.00;99497.66;5094532;28;20039;-71
2022/11/19 06:59:58;;;;;;;5.30;3.25;;;;;;;7.53;100.00;99496.84;5077561;28;20087;-71
2022/11/19 07:02:23;;;;;;;5.63;3.33;;;;;;;7.53;100.00;99496.84;5073869;28;20080;-70
2022/11/19 07:04:49;;;;;;;6.03;2.88;;;;;;;7.56;100.00;99496.47;5074467;28;20115;-71
2022/11/19 07:07:14;;;;;;;5.03;2.88;;;;;;;7.55;100.00;99494.84;5074140;28;20469;-71
2022/11/19 07:09:39;;;;;;;6.90;3.50;;;;;;;7.56;100.00;99499.13;5074523;28;20062;-71
2022/11/19 07:12:06;;;;;;;6.78;3.63;;;;;;;7.57;100.00;99503.47;5075577;28;20086;-70
2022/11/19 07:14:32;;;;;;;6.40;3.42;;;;;;;7.56;100.00;99502.63;5074798;28;20033;-70
2022/11/19 07:16:57;;;;;;;6.60;3.25;;;;;;;7.61;100.00;99504.75;5072690;28;20397;-70
2022/11/19 07:19:22;;;;;;;6.18;3.33;;;;;;;7.60;100.00;99514.53;5073842;28;20493;-71
2022/11/19 07:21:48;;;;;;;6.32;3.47;;;;;;;7.62;100.00;99522.31;5072197;28;20509;-71
2022/11/19 07:24:15;;;;;;;6.18;2.95;;;;;;;7.64;100.00;99520.34;5072664;28;20518;-70
2022/11/19 07:26:41;;;;;;;6.32;3.03;;;;;;;7.67;100.00;99525.28;5073931;28;20084;-70
2022/11/19 07:29:07;;;;;;;5.40;3.00;;;;;;;7.69;100.00;99527.75;5073713;28;20032;-70
2022/11/19 07:31:33;;;;;;;5.63;2.95;;;;;;;7.70;100.00;99532.91;5073199;28;20029;-52
2022/11/19 07:33:58;;;;;;;4.68;2.97;;;;;;;7.75;100.00;99527.06;5073527;28;20035;-52
2022/11/19 07:36:24;;;;;;;6.82;3.72;;;;;;;7.75;100.00;99530.53;5073546;28;20425;-53
2022/11/19 07:38:51;;;;;;;5.72;3.30;;;;;;;7.75;100.00;99519.09;5073434;28;20475;-53
2022/11/19 07:44:01;;;;;;;6.15;2.78;;;;;;;7.82;100.00;99528.88;5072423;28;20063;-50
2022/11/19 07:46:26;;;;;;;4.65;3.25;;;;;;;7.84;100.00;99529.53;5073254;28;20028;-47
2022/11/19 07:48:53;;;;;;;4.78;3.10;;;;;;;7.89;100.00;99527.19;5073271;28;20071;-50
2022/11/19 07:51:19;;;;;;;5.18;2.83;;;;;;;7.92;100.00;99539.25;5071602;28;20042;-49
2022/11/19 07:53:44;;;;;;;6.70;3.25;;;;;;;7.93;100.00;99540.06;5073026;28;20119;-53
2022/11/19 07:56:10;;;;;;;5.93;3.47;;;;;;;7.91;100.00;99536.78;5073049;28;20087;-49
2022/11/19 07:58:35;;;;;;;8.48;3.58;;;;;;;7.91;100.00;99539.44;5073016;28;20466;-51
2022/11/19 08:01:21;;;;;;;4.93;2.85;;;;;;;7.98;100.00;99543.88;5072626;28;20041;-52
2022/11/19 08:03:49;;;;;;;6.13;3.05;;;;;;;7.97;100.00;99544.06;5072928;28;20032;-56
2022/11/19 08:06:16;;;;;;;5.15;3.00;;;;;;;8.01;100.00;99543.50;5072809;28;20035;-50
2022/11/19 08:08:42;;;;;;;5.53;3.57;;;;;;;8.02;100.00;99541.69;5072944;28;20090;-54
2022/11/19 08:11:10;;;;;;;5.00;3.08;;;;;;;8.05;100.00;99555.44;5072549;28;20120;-50
2022/11/19 08:13:35;;;;;;;6.93;3.55;;;;;;;8.06;100.00;99556.25;5072726;28;20036;-51
2022/11/19 08:18:10;;;;;;;4.15;2.72;;;;;;;8.05;100.00;99562.56;5054769;28;20036;-54
2022/11/19 08:19:00;;;;;;;;;;;;;;;8.06;100.00;99562.38;5073056;28;20090;-65
2022/11/19 08:21:25;;;;;;;4.30;2.45;;;;;;;8.03;100.00;99560.09;5072235;28;19916;-65
2022/11/19 08:23:50;;;;;;;6.75;2.85;;;;;;;8.05;100.00;99565.22;5072628;28;20039;-65
2022/11/19 08:26:16;;;;;;;7.15;2.97;;;;;;;8.07;100.00;99558.72;5072411;28;20090;-66
2022/11/19 08:28:41;;;;;;;4.25;2.65;;;;;;;8.08;100.00;99559.56;5071243;28;20068;-66
2022/11/19 08:31:07;;;;;;;6.00;2.92;;;;;;;8.06;100.00;99562.38;5072285;28;20064;-65
2022/11/19 08:33:33;;;;;;;5.07;2.85;;;;;;;8.08;100.00;99560.38;5072442;28;20025;-65
2022/11/19 08:35:59;;;;;;;2.83;2.35;;;;;;;8.08;100.00;99556.91;5072162;28;20043;-66
2022/11/19 08:38:24;;;;;;;4.43;2.60;;;;;;;8.08;100.00;99559.56;5072215;28;20486;-65
2022/11/19 08:40:51;;;;;;;2.58;2.00;;;;;;;8.09;100.00;99567.34;5071969;28;20028;-66
2022/11/19 08:43:17;;;;;;;3.20;2.15;;;;;;;8.08;100.00;99568.34;5072313;28;20374;-66
2022/11/19 08:45:52;;;;;;;9.73;4.65;;;;;;;8.10;100.00;99573.50;5072133;28;20039;-65
2022/11/19 08:48:18;;;;;;;4.32;2.85;;;;;;;8.09;100.00;99566.53;5072246;28;20079;-65
2022/11/19 08:50:44;;;;;;;7.47;2.80;;;;;;;8.09;100.00;99571.84;5071738;28;20024;-65
2022/11/19 08:53:09;;;;;;;4.82;1.85;;;;;;;8.13;100.00;99567.81;5072119;28;20090;-66
2022/11/19 08:55:34;;;;;;;4.20;2.35;;;;;;;8.15;100.00;99571.16;5071809;28;20397;-65
2022/11/19 08:58:05;;;;;;;3.90;2.25;;;;;;;8.16;100.00;99572.81;5071964;28;20152;-65
2022/11/19 09:00:33;;;;;;;4.05;1.95;;;;;;;8.23;100.00;99573.75;5070323;28;20055;-65
2022/11/19 09:02:58;;;;;;;6.93;2.25;;;;;;;8.26;100.00;99577.88;5071976;28;20052;-65
2022/11/19 09:05:24;;;;;;;3.45;2.35;;;;;;;8.29;100.00;99566.94;5071937;28;20094;-65
2022/11/19 09:07:49;;;;;;;4.95;2.22;;;;;;;8.35;100.00;99574.19;5070668;28;20032;-65
2022/11/19 09:10:16;;;;;;;3.33;1.88;;;;;;;8.37;100.00;99578.34;5071594;28;20044;-65
2022/11/19 09:12:41;;;;;;;3.78;2.22;;;;;;;8.37;100.00;99561.59;5077257;28;20048;-65
2022/11/19 09:15:07;;;;;;;3.45;2.10;;;;;;;8.49;100.00;99575.28;5091228;28;20088;-64
2022/11/19 09:17:33;;;;;;;4.70;2.50;;;;;;;8.43;100.00;99575.00;5091856;28;20112;-65
2022/11/19 09:19:58;;;;;;;3.63;2.42;;;;;;;8.47;100.00;99575.44;5091748;28;20043;-65
2022/11/19 09:22:24;;;;;;;7.68;2.78;;;;;;;8.49;100.00;99577.94;5091517;28;20047;-64
2022/11/19 09:24:49;;;;;;;4.57;2.60;;;;;;;8.48;100.00;99581.59;5091564;28;20036;-65
2022/11/19 09:27:15;;;;;;;5.45;2.38;;;;;;;8.44;100.00;99586.44;5091789;28;20062;-64
2022/11/19 09:29:40;;;;;;;3.25;2.25;;;;;;;8.36;100.00;99589.13;5091851;28;20412;-64
2022/11/19 09:32:06;;;;;;;4.65;2.38;;;;;;;8.33;100.00;99592.91;5091439;28;20077;-64
2022/11/19 09:34:33;;;;;;;7.25;2.20;;;;;;;8.29;100.00;99596.13;5091751;28;20125;-64
2022/11/19 09:36:59;;;;;;;6.93;2.72;;;;;;;8.27;100.00;99595.44;5091633;28;20492;-64
2022/11/19 09:39:25;;;;;;;3.35;2.42;;;;;;;8.30;100.00;99606.53;5091697;28;20036;-64
2022/11/19 09:42:03;;;;;;;5.72;3.00;;;;;;;8.29;100.00;99606.72;5091915;28;20021;-65
2022/11/19 09:44:47;;;;;;;;;;;;;;;8.31;100.00;99608.19;5092669;28;20044;-58
2022/11/19 09:47:19;;;;;;;4.75;2.35;;;;;;;8.35;100.00;99604.25;5108833;28;19949;-67
2022/11/19 09:50:06;;;;;;;3.85;2.10;;;;;;;8.38;100.00;99605.69;5092530;28;20032;-67
2022/11/19 09:52:34;;;;;;;3.45;2.15;;;;;;;8.37;100.00;99606.72;5091525;28;20090;-67
2022/11/19 09:55:01;;;;;;;6.47;2.72;;;;;;;8.34;100.00;99610.50;5091552;28;20044;-66
2022/11/19 09:57:35;;;;;;;3.67;2.08;;;;;;;8.31;100.00;99610.03;5090476;28;20044;-67
2022/11/19 10:00:05;;;;;;;7.57;2.25;;;;;;;8.30;100.00;99617.16;5091965;28;20042;-66
2022/11/19 10:02:37;;;;;;;2.03;1.83;;;;;;;8.29;100.00;99618.16;5091584;28;20450;-66
2022/11/19 10:05:02;;;;;;;5.47;2.40;;;;;;;8.25;100.00;99621.34;5091568;28;20064;-66
2022/11/19 10:07:39;;;;;;;3.25;1.92;;;;;;;8.24;100.00;99617.03;5092411;28;20377;-66
2022/11/19 10:10:32;;;;;;;2.27;1.60;;;;;;;8.27;100.00;99614.84;5095440;28;20040;-66
2022/11/19 10:13:10;;;;;;;3.90;1.85;;;;;;;8.25;100.00;99621.34;5095283;28;20495;-66
2022/11/19 10:15:54;;;;;;;4.05;1.88;;;;;;;8.24;100.00;99625.00;5095176;28;20043;-66
2022/11/19 10:18:26;;;;;;;3.05;1.52;;;;;;;8.24;100.00;99617.84;5093692;28;20043;-66
2022/11/19 10:20:58;;;;;;;3.55;1.88;;;;;;;8.18;100.00;99613.25;5094885;28;20079;-66
2022/11/19 10:23:43;;;;;;;2.40;1.88;;;;;;;8.23;100.00;99610.06;5095072;28;20040;-65
2022/11/19 10:26:13;;;;;;;3.63;2.08;;;;;;;8.20;100.00;99605.91;5094924;28;20040;-66
2022/11/19 10:28:42;;;;;;;2.72;1.92;;;;;;;8.15;100.00;99610.94;5094908;28;20051;-66
2022/11/19 10:31:16;;;;;;;2.40;1.38;;;;;;;8.17;100.00;99606.28;5094667;28;20035;-65
2022/11/19 10:33:53;;;;;;;2.05;1.77;;;;;;;8.14;100.00;99606.63;5094856;28;20039;-66
2022/11/19 10:36:27;;;;;;;2.47;1.70;;;;;;;8.16;100.00;99594.03;5094810;28;20044;-65
2022/11/19 10:39:02;;;;;;;2.75;1.75;;;;;;;8.20;100.00;99595.31;5094862;28;20043;-66
2022/11/19 10:41:45;;;;;;;3.45;2.15;;;;;;;8.20;100.00;99605.91;5094258;28;20115;-66
2022/11/19 10:44:39;;;;;;;2.15;1.35;;;;;;;8.18;100.00;99597.31;5094672;28;20080;-66
2022/11/19 10:47:35;;;;;;;4.00;1.55;;;;;;;8.21;100.00;99598.78;5094810;28;20138;-65
2022/11/19 10:50:00;;;;;;;2.88;1.70;;;;;;;8.21;100.00;99604.09;5094336;28;20063;-65
2022/11/19 10:52:30;;;;;;;2.63;1.55;;;;;;;8.25;100.00;99603.59;5093040;28;20076;-66
2022/11/19 10:55:02;;;;;;;5.18;1.45;;;;;;;8.26;100.00;99604.41;5094330;28;20067;-66
2022/11/19 10:57:30;;;;;;;2.83;1.98;;;;;;;8.21;100.00;99604.09;5094396;28;20437;-66
2022/11/19 10:59:56;;;;;;;5.07;1.75;;;;;;;8.28;100.00;99603.25;5094243;28;20062;-66
2022/11/19 11:02:36;;;;;;;3.20;1.70;;;;;;;8.25;100.00;99602.75;5094091;28;20050;-68
2022/11/19 11:05:16;;;;;;;3.83;2.10;;;;;;;8.26;100.00;99604.41;5094435;28;20063;-65
2022/11/19 11:07:51;;;;;;;2.00;1.63;;;;;;;8.23;100.00;99597.63;5094288;28;20064;-66
2022/11/19 11:10:27;;;;;;;4.63;2.38;;;;;;;8.22;100.00;99598.63;5092492;28;20047;-65
2022/11/19 11:15:49;;;;;;;5.50;2.22;;;;;;;8.19;100.00;99592.84;5092680;28;20044;-66
2022/11/19 11:18:16;;;;;;;3.83;1.92;;;;;;;8.19;100.00;99601.63;5093868;28;20032;-66
2022/11/19 11:20:48;;;;;;;2.42;1.85;;;;;;;8.19;100.00;99593.66;5093693;28;20408;-66
2022/11/19 11:23:17;;;;;;;2.28;1.70;;;;;;;8.20;100.00;99595.31;5093871;28;20039;-66
2022/11/19 11:26:00;;;;;;;4.40;1.80;;;;;;;8.22;100.00;99598.63;5092491;28;20123;-66
2022/11/19 11:28:25;;;;;;;3.25;2.05;;;;;;;8.24;100.00;99593.16;5092552;28;20044;-65
2022/11/19 11:31:00;;;;;;;2.33;1.55;;;;;;;8.25;100.00;99590.31;5093507;28;20039;-66
2022/11/19 11:33:41;;;;;;;5.22;2.08;;;;;;;8.30;100.00;99593.28;5093688;28;20530;-66
2022/11/19 11:36:12;;;;;;;3.67;2.35;;;;;;;8.37;100.00;99588.97;5106881;22;20135;-69
2022/11/19 11:38:46;;;;;;;4.72;2.03;;;;;;;8.39;100.00;99597.56;5073498;28;20485;-69
2022/11/19 11:41:16;;;;;;;3.53;2.35;;;;;;;8.45;100.00;99588.06;5071799;28;20059;-69
2022/11/19 11:44:00;;;;;;;7.63;2.45;;;;;;;8.48;100.00;99584.25;5073378;28;20401;-69
2022/11/19 11:46:47;;;;;;;3.10;1.75;;;;;;;8.47;100.00;99590.53;5072863;28;20051;-69
2022/11/19 11:49:35;;;;;;;4.13;2.15;;;;;;;8.46;100.00;99581.75;5059970;28;20516;-69
2022/11/19 11:52:03;;;;;;;2.25;1.63;;;;;;;8.47;100.00;99586.06;5054894;28;20382;-69
2022/11/19 11:54:29;;;;;;;9.50;2.08;;;;;;;8.43;100.00;99582.94;5073035;28;20040;-69
2022/11/19 11:57:17;;;;;;;4.57;2.22;;;;;;;8.38;100.00;99585.28;5072913;28;20401;-68
2022/11/19 11:59:44;;;;;;;2.35;1.73;;;;;;;8.37;100.00;99596.09;5072836;28;20032;-69
2022/11/19 12:02:20;;;;;;;4.90;2.55;;;;;;;8.37;100.00;99588.97;5054468;28;20174;-68
2022/11/19 12:04:45;;;;;;;3.40;2.15;;;;;;;8.41;100.00;99594.72;5072917;28;20442;-68
2022/11/19 12:07:25;;;;;;;3.95;1.80;;;;;;;8.38;100.00;99585.28;5054912;28;20102;-68
2022/11/19 12:10:23;;;;;;;3.38;1.73;;;;;;;8.35;100.00;99582.16;5070228;28;20047;-67
2022/11/19 12:13:24;;;;;;;4.47;2.20;;;;;;;8.32;100.00;99585.13;5072763;28;20040;-67
2022/11/19 12:15:56;;;;;;;2.47;1.90;;;;;;;8.33;100.00;99592.91;5072446;28;20032;-68
2022/11/19 12:18:33;;;;;;;3.92;2.55;;;;;;;8.34;100.00;99583.94;5072566;28;20032;-68
2022/11/19 12:21:09;;;;;;;3.60;1.98;;;;;;;8.35;100.00;99587.47;5072156;28;20040;-68
2022/11/19 12:23:46;;;;;;;2.60;1.90;;;;;;;8.32;100.00;99587.78;5072476;28;20075;-68
2022/11/19 12:26:49;;;;;;;4.80;2.28;;;;;;;8.37;100.00;99585.47;5072438;28;20036;-67
2022/11/19 12:29:26;;;;;;;6.80;2.63;;;;;;;8.39;100.00;99589.59;5069437;28;20070;-67
2022/11/19 12:32:17;;;;;;;7.80;1.90;;;;;;;8.45;100.00;99579.28;5070873;28;20041;-68
2022/11/19 12:35:01;;;;;;;3.92;2.42;;;;;;;8.47;100.00;99580.75;5069976;28;20028;-68
2022/11/19 12:37:35;;;;;;;3.45;2.33;;;;;;;8.50;100.00;99584.91;5070561;28;20033;-68
2022/11/19 12:40:26;;;;;;;5.15;2.67;;;;;;;8.50;100.00;99587.56;5069383;28;20511;-68
2022/11/19 12:43:04;;;;;;;4.35;2.67;;;;;;;8.52;100.00;99594.34;5043006;28;20518;-68
2022/11/19 12:45:38;;;;;;;4.28;2.42;;;;;;;8.53;100.00;99584.53;5071713;28;20054;-68
2022/11/19 12:48:06;;;;;;;6.80;2.50;;;;;;;8.53;100.00;99584.53;5071806;28;20074;-67
2022/11/19 12:50:47;;;;;;;4.35;2.42;;;;;;;8.53;100.00;99587.19;5070837;28;20044;-67
2022/11/19 12:53:28;;;;;;;2.60;2.28;;;;;;;8.53;100.00;99587.19;5070895;28;20374;-68
2022/11/19 12:56:21;;;;;;;5.68;2.40;;;;;;;8.57;100.00;99585.84;5071710;28;20505;-67
2022/11/19 12:58:55;;;;;;;3.55;2.30;;;;;;;8.61;100.00;99587.16;5071779;28;20154;-68
2022/11/19 13:01:25;;;;;;;3.47;1.80;;;;;;;8.58;100.00;99579.53;5053354;28;20086;-68
2022/11/19 13:04:04;;;;;;;4.10;2.63;;;;;;;8.62;100.00;99584.31;5075409;28;20055;-68
2022/11/19 13:06:54;;;;;;;6.55;1.95;;;;;;;8.65;100.00;99588.44;5075450;28;20036;-67
2022/11/19 13:09:33;;;;;;;4.28;2.25;;;;;;;8.69;100.00;99589.75;5071590;28;20044;-67
2022/11/19 13:12:04;;;;;;;2.17;1.67;;;;;;;8.71;100.00;99579.78;5053356;28;20251;-67
2022/11/19 13:14:38;;;;;;;3.25;2.00;;;;;;;8.73;100.00;99591.03;5071594;28;20028;-68
2022/11/19 13:17:16;;;;;;;2.58;1.90;;;;;;;8.72;100.00;99588.56;5071613;28;20043;-68
2022/11/19 13:19:45;;;;;;;4.38;2.10;;;;;;;8.71;100.00;99590.41;5071712;28;20067;-69
2022/11/19 13:22:20;;;;;;;4.70;2.22;;;;;;;8.73;100.00;99585.72;5071222;28;20028;-69
2022/11/19 13:24:53;;;;;;;5.70;2.35;;;;;;;8.70;100.00;99592.22;5071376;28;20039;-68
2022/11/19 13:27:23;;;;;;;2.42;1.92;;;;;;;8.69;100.00;99590.56;5071392;28;20032;-68
2022/11/19 13:30:00;;;;;;;3.80;2.38;;;;;;;8.71;100.00;99593.03;5071419;28;20040;-69
2022/11/19 13:32:46;;;;;;;4.40;2.35;;;;;;;8.74;100.00;99590.06;5053190;28;20044;-71
2022/11/19 13:35:22;;;;;;;3.15;2.40;;;;;;;8.71;100.00;99595.69;5071275;28;20028;-67
2022/11/19 13:37:50;;;;;;;6.15;2.53;;;;;;;8.74;100.00;99597.16;5071530;28;20041;-70
2022/11/19 13:40:33;;;;;;;5.32;2.10;;;;;;;8.78;100.00;99593.16;5053049;28;20123;-67
2022/11/19 13:46:03;;;;;;;4.35;2.60;;;;;;;8.78;100.00;99603.78;5033945;28;20052;-70
2022/11/19 13:48:33;;;;;;;3.60;2.72;;;;;;;8.48;100.00;99597.53;5075329;28;20048;-70
2022/11/19 13:51:03;;;;;;;4.05;3.10;;;;;;;8.40;100.00;99601.88;5074884;28;20055;-67
2022/11/19 13:53:43;;;;;;;5.50;3.00;;;;;;;8.23;100.00;99588.84;5075209;28;20036;-66
2022/11/19 13:56:14;;;;;;;6.47;3.67;;;;;;;8.22;100.00;99603.13;5075180;28;20046;-68
2022/11/19 13:58:53;;;;;;;5.22;2.85;;;;;;;8.13;100.00;99604.97;5075075;28;20059;-70
2022/11/19 14:01:47;;;;;;;4.50;3.13;;;;;;;7.61;100.00;99611.59;5074825;28;20050;-69
2022/11/19 14:04:33;;;;;;;6.00;3.65;;;;;;;7.70;100.00;99606.31;5075006;28;20032;-70
2022/11/19 14:07:22;;;;;;;4.85;3.42;;;;;;;7.35;100.00;99616.28;5057061;28;20135;-69
2022/11/19 14:10:00;;;;;;;3.92;2.80;;;;;;;7.37;100.00;99619.63;5075222;28;20039;-70
2022/11/19 14:12:37;;;;;;;5.88;3.42;;;;;;;7.27;100.00;99622.44;5074568;28;20032;-69
2022/11/19 14:27:26;;;;;;;5.07;2.97;;;;;;;6.79;100.00;99633.84;5074209;28;20066;-70
2022/11/19 14:29:56;;;;;;;6.35;3.63;;;;;;;6.70;100.00;99627.69;5074439;28;20044;-69
2022/11/19 14:32:34;;;;;;;5.20;3.22;;;;;;;6.70;100.00;99632.16;5074117;28;20041;-69
2022/11/19 14:35:00;;;;;;;11.38;3.63;;;;;;;6.74;100.00;99634.34;5074184;28;20393;-69
2022/11/19 14:37:33;;;;;;;9.30;4.90;;;;;;;6.69;100.00;99635.81;5074274;28;20033;-67
2022/11/19 14:40:22;;;;;;;4.10;2.85;;;;;;;6.59;100.00;99635.97;5074282;28;20036;-66
2022/11/19 14:46:01;;;;;;;6.15;3.17;;;;;;;6.57;100.00;99645.88;5074023;28;20037;-68
2022/11/19 14:48:52;;;;;;;5.68;3.30;;;;;;;6.49;100.00;99641.41;5074091;28;20028;-68
2022/11/19 14:51:28;;;;;;;4.57;2.88;;;;;;;6.46;100.00;99643.56;5055968;28;20059;-67
2022/11/19 14:54:03;;;;;;;5.32;2.80;;;;;;;6.54;100.00;99643.56;5073670;28;20040;-67
2022/11/19 14:56:29;;;;;;;4.45;2.88;;;;;;;6.51;100.00;99635.94;5073813;28;20102;-69
2022/11/19 14:59:04;;;;;;;8.05;3.53;;;;;;;6.52;100.00;99640.25;5073887;28;20515;-68
2022/11/19 15:01:30;;;;;;;4.95;3.15;;;;;;;6.49;100.00;99645.88;5073578;28;20036;-68
2022/11/19 15:04:02;;;;;;;5.43;3.22;;;;;;;6.46;100.00;99652.31;5073844;28;20117;-68
2022/11/19 15:06:32;;;;;;;5.90;3.22;;;;;;;6.45;100.00;99645.34;5073557;28;20131;-68
2022/11/19 15:09:00;;;;;;;6.18;3.13;;;;;;;6.36;100.00;99645.50;5055590;28;20066;-68
2022/11/19 15:11:54;;;;;;;5.68;3.10;;;;;;;6.27;100.00;99657.88;5071702;28;20136;-67
2022/11/19 15:14:28;;;;;;;7.50;3.05;;;;;;;6.27;100.00;99659.69;5073132;28;20051;-67
2022/11/19 15:17:00;;;;;;;6.50;3.33;;;;;;;6.22;100.00;99653.06;5072762;28;20032;-67
2022/11/19 15:19:46;;;;;;;5.97;3.50;;;;;;;6.26;100.00;99656.22;5055328;28;20059;-68
2022/11/19 15:22:24;;;;;;;6.32;3.42;;;;;;;6.13;100.00;99656.66;5073326;28;20035;-68
2022/11/19 15:24:58;;;;;;;7.72;3.38;;;;;;;5.93;100.00;99655.22;5073599;28;20032;-67
2022/11/19 15:27:57;;;;;;;8.07;4.03;;;;;;;6.04;100.00;99662.06;5073429;28;20469;-68
2022/11/19 15:30:34;;;;;;;7.30;3.58;;;;;;;6.16;100.00;99658.97;5067013;28;20049;-68
2022/11/19 15:33:15;;;;;;;9.33;3.43;;;;;;;6.10;100.00;99661.44;5073394;28;20059;-69
2022/11/19 15:35:52;;;;;;;8.25;3.72;;;;;;;5.82;100.00;99663.41;5073124;28;20316;-69
2022/11/19 15:38:21;;;;;;;8.38;3.53;;;;;;;5.90;100.00;99661.63;5073302;28;20032;-70
2022/11/19 15:40:48;;;;;;;5.10;3.10;;;;;;;6.01;100.00;99665.84;5072976;28;20040;-69
2022/11/19 15:43:25;;;;;;;7.38;4.70;;;;;;;5.87;100.00;99661.97;5073311;28;20120;-70
2022/11/19 15:45:59;;;;;;;4.80;3.30;;;;;;;6.01;100.00;99668.50;5073020;28;20028;-67
2022/11/19 15:48:31;;;;;;;5.55;3.45;;;;;;;6.02;100.00;99678.09;5073107;28;20090;-68
2022/11/19 15:50:57;;;;;;;4.95;3.50;;;;;;;5.83;100.00;99675.63;5072587;28;20037;-67
2022/11/19 15:53:23;;;;;;;6.75;3.47;;;;;;;5.91;100.00;99683.63;5055467;28;20028;-68
2022/11/19 15:55:58;;;;;;;7.95;4.75;;;;;;;5.86;100.00;99686.72;5054974;28;20051;-70
2022/11/19 15:58:46;;;;;;;6.60;3.50;;;;;;;5.84;100.00;99680.75;5072813;28;20044;-70
2022/11/19 16:01:17;;;;;;;6.32;3.33;;;;;;;5.87;100.00;99666.41;5072089;28;20574;-71
2022/11/19 16:03:43;;;;;;;8.98;5.10;;;;;;;5.88;100.00;99674.19;5072874;28;20037;-70
2022/11/19 16:06:16;;;;;;;7.30;4.07;;;;;;;5.91;100.00;99678.34;5071879;28;20547;-69
2022/11/19 16:08:50;;;;;;;5.32;3.20;;;;;;;5.87;100.00;99682.28;5072762;28;20029;-70
2022/11/19 16:17:33;;;;;;;6.00;3.50;;;;;;;5.79;100.00;99690.13;4991009;28;20068;-69
2022/11/19 16:20:08;;;;;;;5.47;3.78;;;;;;;5.72;100.00;99698.69;4990903;28;20050;-69
2022/11/19 16:22:39;;;;;;;13.00;6.30;;;;;;;5.72;100.00;99688.13;5048873;28;20563;-69
2022/11/19 16:25:12;;;;;;;11.00;4.72;;;;;;;5.81;100.00;99696.94;5072378;28;20032;-69
2022/11/19 16:27:41;;;;;;;6.80;3.75;;;;;;;5.77;100.00;99676.25;5072474;28;20032;-69
2022/11/19 16:30:19;;;;;;;6.60;3.28;;;;;;;5.83;100.00;99686.22;5072211;28;20428;-69
2022/11/19 16:32:45;;;;;;;8.07;4.20;;;;;;;5.83;100.00;99692.31;5054545;28;20033;-69
2022/11/19 16:35:21;;;;;;;8.63;4.03;;;;;;;5.73;100.00;99692.41;5072219;28;20101;-69
2022/11/19 16:37:47;;;;;;;6.07;3.90;;;;;;;5.76;100.00;99690.47;5072249;28;20131;-68
2022/11/19 16:40:15;;;;;;;5.47;3.17;;;;;;;5.62;100.00;99692.69;5071827;28;20030;-68
2022/11/19 16:42:48;;;;;;;3.33;2.47;;;;;;;5.50;100.00;99685.16;5072182;28;20040;-68
2022/11/19 16:45:27;;;;;;;4.70;2.80;;;;;;;5.46;100.00;99695.19;5071986;28;20047;-68
2022/11/19 16:47:57;;;;;;;5.00;2.90;;;;;;;5.40;100.00;99694.00;5071995;28;20040;-68
2022/11/19 16:50:34;;;;;;;6.38;3.58;;;;;;;5.52;100.00;99694.59;5071766;28;20037;-68
2022/11/19 16:53:04;;;;;;;5.50;3.20;;;;;;;5.55;100.00;99696.94;5072156;28;20040;-70
2022/11/19 16:55:30;;;;;;;6.25;3.63;;;;;;;5.57;100.00;99697.59;5071893;28;20059;-70
2022/11/19 16:58:00;;;;;;;6.10;3.42;;;;;;;5.60;100.00;99696.44;5071909;28;20485;-70
2022/11/19 17:00:32;;;;;;;5.07;3.30;;;;;;;5.28;100.00;99686.47;5071685;28;20127;-69
2022/11/19 17:02:58;;;;;;;6.15;3.10;;;;;;;5.27;100.00;99682.16;5072025;28;20060;-69
2022/11/19 17:05:28;;;;;;;6.15;3.15;;;;;;;5.42;100.00;99688.59;5071836;28;20028;-69
2022/11/19 17:08:18;;;;;;;6.22;3.00;;;;;;;5.31;100.00;99694.94;5054064;28;20445;-69
2022/11/19 17:10:43;;;;;;;5.15;3.17;;;;;;;5.35;100.00;99693.66;5071407;28;20109;-69
2022/11/19 17:13:35;;;;;;;4.63;2.50;;;;;;;5.40;100.00;99693.16;5071803;28;20168;-70
2022/11/19 17:16:17;;;;;;;4.72;3.00;;;;;;;5.37;100.00;99701.41;5067858;28;20059;-69
2022/11/19 17:18:43;;;;;;;7.57;3.53;;;;;;;5.40;100.00;99701.91;5071876;28;20041;-69
2022/11/19 17:21:24;;;;;;;4.15;2.70;;;;;;;5.38;100.00;99708.34;5053480;28;20102;-69
2022/11/19 17:23:50;;;;;;;6.38;3.42;;;;;;;5.46;100.00;99716.34;5071530;28;20024;-69
2022/11/19 17:26:22;;;;;;;4.53;2.35;;;;;;;5.33;100.00;99707.97;5071356;28;20044;-69
2022/11/19 17:28:51;;;;;;;5.13;3.20;;;;;;;5.43;100.00;99724.56;5071522;28;20040;-69
2022/11/19 17:31:22;;;;;;;5.25;3.08;;;;;;;5.51;100.00;99726.44;5071200;28;20110;-69
2022/11/19 17:33:54;;;;;;;5.28;3.10;;;;;;;5.43;100.00;99722.75;5053427;28;20044;-68
2022/11/19 17:36:21;;;;;;;6.07;3.30;;;;;;;5.48;100.00;99718.81;5071772;28;20040;-69
2022/11/19 17:38:47;;;;;;;5.35;2.67;;;;;;;5.48;100.00;99724.97;5053540;28;20024;-69
2022/11/19 17:41:16;;;;;;;6.03;3.83;;;;;;;5.53;100.00;99727.94;5071120;28;20044;-68
2022/11/19 17:46:28;;;;;;;5.50;3.60;;;;;;;5.38;100.00;99732.94;5053789;28;20447;-68
2022/11/19 17:48:54;;;;;;;5.03;3.22;;;;;;;5.39;100.00;99734.59;5071443;28;20035;-68
2022/11/19 17:51:21;;;;;;;5.32;3.03;;;;;;;5.46;100.00;99740.09;5070958;28;20131;-68